Scroll down
FLIGHT INFORMATION
Norwegian Air Shuttle

NAX3281

At Arrival Gate

LDDU
 EKCH
DATE: 2021-08-28
GATE: G5
GATE DEPARTURE: 13:20
TAKEOFF: 13:30
DATE: 2021-08-28
GATE: C28
LANDING: 15:42
GATE ARRIVAL: 15:50
FLIGHT DATA
Crew: 
Speed: 
861 kph
Altitude: 
38,006 ft
Stage Length: 
1,507.0 km
Block Time: 
2.4 hrs
Flight Time: 
2.2 hrs
Fuel Used: 
5,820 kg
Cleared Route: LDDU MOKUN TORTO PARAK AMRAX BILNA SOPAV REGLI EPOPA SOGPI DEVEG NUDRO ARMEX XIDNA DENKO VAVUN MASUN GOMEX ROBOV TILAV GOSOT ROE ROXUB TIDVU EKCH
TRACK DATA
50,000 ft 1,000 kts
AIRCRAFT INFO AND CUMULATIVE STATS
Aircraft Type: 
B738BW
Registration: 
SELCAL: 
BHEL
MSN/LN: 
39025 / 4652
Operator: 
Total Flights: 
8
Total Block Time: 
24.9 hrs
Total Flight Time: 
23.1 hrs
Total Fuel Used: 
61,191 kg
DATALINK LOG | Newest first | Current as of: 2022-09-27 07:52:42
LABEL SEQUENCE CONTENT Dn/Up
5Z510028 AUG 21 15:50:54z / FLT DECK GOOD / ACF POS GOOD / GRND SERVICES GOOD / MAINT GOOD▼ Dn
QD510015:50 9.4▼ Dn
QC425215:42▼ Dn
2U3658EKCH 281520Z AUTO 36017KT 9999 BKN022/// OVC040/// 15/14 Q1017 NOSIG▲ Up
2S3646EKCH▼ Dn
GA5818GATE C28▲ Up
GR5808EKCH 15:42 MAAS 00 YP/UM 00/00 WCHR/S/C 00/00/00 HI-VAL NO DIPL/VIP NO▼ Dn
2U5318EKCH 281350Z 01015KT 8000 -RA OVC015 15/14 Q1017 TEMPO BKN014▲ Up
2S5404EKCH▼ Dn
UM201334CLEARED TO FL 380▲ Up
DM61324REQUEST FL 380 DUE TO A/C PERF▼ Dn
UM204163CLEARED TO FL 360▲ Up
DM64153REQUEST FL 360 DUE TO A/C PERF▼ Dn
QB304213:30▼ Dn
QA203213:20 22.3▼ Dn
5Z183028 AUG 21 13:18:03z / FLT DECK GOOD / ACF POS GOOD / GRND SERVICES GOOD / MAINT GOOD▼ Dn
2U1317LDDU 281300Z 04014KT 350V080 9999 TS FEW020CB BKN030 22/16 Q1009 TEMPO TSRA▲ Up
2S1325LDDU▼ Dn
A30930CLEARED TO EKCH VIA MOKU5C MOKUN TORTO PARAK AMRAX BILNA SOPAV REGLI L617 XIDNA DENKO VAVUN L996 ROE M743 TIDVU TIDV1M. SQUAWK 7332.▲ Up
B30921LDDU EKCH NAX3281 LN-NGN ▼ Dn
Q00821[LINK ACK]▲ Up
Q00821[LINK TEST]▼ Dn


AIRCRAFT HISTORY
FLIGHT DATE FLIGHT NO. ORIGIN DESTINATION CLEARED ROUTE BLOCK TIME FLIGHT TIME FUEL USED PILOT
2021-09-30NAX3731LIRF EKCH LIRF SOVAN AMTEL NUKNI BIKTU LUMAV SUMIR BRENO KONIN EXITI EMBOX LEGDA GARGU ERNUD BKD LASLU NOBRI PABMI TAGOB ROSOK NIKDA MONAK EKCH2.5 hrs2.2 hrs13,372 lbAnton Vind
2021-09-30NAX3730EKCH LIRF EKCH NEXEN GIMRU MICOS WRB RANAX EDEGA AMETU SOGMI BOMBI GIGET ABUKA KRH EPIXU NATOR TITIX TRA RIPUS GERSA SOSON DEGAD ODINA TINKU XIBIL LIRF2.4 hrs2.2 hrs13,145 lbAnton Vind
2021-08-28NAX3281LDDU EKCH LDDU MOKUN TORTO PARAK AMRAX BILNA SOPAV REGLI EPOPA SOGPI DEVEG NUDRO ARMEX XIDNA DENKO VAVUN MASUN GOMEX ROBOV TILAV GOSOT ROE ROXUB TIDVU EKCH2.4 hrs2.2 hrs12,830 lbAnton Vind
2021-08-28NAX3280EKCH LDDU EKCH NEXEN GIMRU MICOS EDEGA OMOGI SUNEG TEDGO UTABA MOMUK BEMKI XEBIX ELMEM BILDU OTRES GIRIS NIVAS PEVAL PUL SPL SIPAL TIKSA NERRA LDDU2.5 hrs2.3 hrs13,935 lbAnton Vind
2021-07-31NAX3390LCLK EKCH LCLK PHA GENOS PEDER DASNI TOMBI DERYA AYT OSVEL RAVGO YASEN MAKOL ARGES KARIL KENIN LENOV BABEN KOLOB ROE ROXUB TIDVU EKCH4.3 hrs3.9 hrs23,974 lbAnton Vind
2021-07-31NAX3390EKCH LCLK EKCH SIMEG BIKRU BILRA XELOL INDIG LENOV KENIN KARIL BIVBU GASRU ADORU ATVEP ULMAR EKI YAYLA KUDAK ESKIN KULAR NESIL LAMSA EDISI TOMBI DASNI VADUS BONEK LCLK3.7 hrs3.5 hrs21,228 lbAnton Vind
2021-04-06NAX3353LGSA EKCH LGSA SOKRI IXIMA EKTOS VELOP DDM VARDI YNN DIMIS RETRA GAC BOSNA OBUTI INSAX LOKVU LEMBI HDO BAKDO KOSEB MONAK EKCH3.3 hrs3.2 hrs18,569 lbRobin Oeverby
2021-04-05NAX9318ENZV LGSA ENZV BIVKI LUTIR WRB ANANO MASEK OSBIT WUR DINKU ABISO SABAD LUPAL KFN TRL SOKRI LGSA3.8 hrs3.6 hrs17,850 lbRobin Oeverby